createdAt,value
2022-11-27T00:01:37.779Z,3.30
2022-11-27T00:04:08.755Z,5.50
2022-11-27T00:06:39.413Z,5.80
2022-11-27T00:09:12.211Z,5.00
2022-11-27T00:11:41.310Z,1.10
2022-11-27T00:14:14.015Z,2.00
2022-11-27T00:16:42.808Z,2.20
2022-11-27T00:19:12.825Z,2.30
2022-11-27T00:21:41.690Z,1.80
2022-11-27T00:24:11.641Z,2.20
2022-11-27T00:26:39.990Z,1.80
2022-11-27T00:29:08.705Z,3.30
2022-11-27T00:31:38.362Z,4.40
2022-11-27T00:34:09.569Z,1.10
2022-11-27T00:36:40.350Z,1.70
2022-11-27T00:39:11.213Z,3.80
2022-11-27T00:41:40.198Z,3.00
2022-11-27T00:44:08.741Z,3.90
2022-11-27T00:46:37.879Z,3.10
2022-11-27T00:49:07.651Z,4.80
2022-11-27T00:51:36.934Z,0.60
2022-11-27T00:54:06.243Z,1.60
2022-11-27T00:56:39.895Z,5.20
2022-11-27T00:59:09.345Z,3.10
2022-11-27T01:01:40.760Z,1.70
2022-11-27T01:04:12.391Z,2.90
2022-11-27T01:06:41.415Z,4.40
2022-11-27T01:09:11.355Z,3.80
2022-11-27T01:11:41.078Z,4.20
2022-11-27T01:14:18.044Z,2.00
2022-11-27T01:16:46.919Z,0.90
2022-11-27T01:19:16.376Z,1.50
2022-11-27T01:21:44.866Z,0.80
2022-11-27T01:24:16.016Z,4.20
2022-11-27T01:26:45.434Z,4.30
2022-11-27T01:29:14.279Z,1.10
2022-11-27T01:31:42.986Z,4.00
2022-11-27T01:34:18.891Z,4.60
2022-11-27T01:36:48.108Z,1.70
2022-11-27T01:39:19.551Z,0.60
2022-11-27T01:41:49.794Z,1.90
2022-11-27T01:44:28.207Z,0.80
2022-11-27T01:47:18.600Z,0.50
2022-11-27T01:49:55.159Z,0.80
2022-11-27T01:52:25.774Z,1.30
2022-11-27T01:55:05.666Z,3.30
2022-11-27T01:57:42.762Z,1.50
2022-11-27T02:00:14.939Z,1.10
2022-11-27T02:02:44.817Z,2.90
2022-11-27T02:05:19.239Z,0.60
2022-11-27T02:07:49.250Z,1.60
2022-11-27T02:10:18.492Z,3.50
2022-11-27T02:12:52.841Z,1.90
2022-11-27T02:15:51.864Z,7.20
2022-11-27T02:18:52.392Z,1.50
2022-11-27T02:21:23.768Z,3.60
2022-11-27T02:24:29.303Z,2.10
2022-11-27T02:27:03.430Z,1.80
2022-11-27T02:29:36.258Z,3.60
2022-11-27T02:32:38.763Z,0.90
2022-11-27T02:35:27.385Z,1.20
2022-11-27T02:38:07.713Z,2.90
2022-11-27T02:40:39.373Z,2.50
2022-11-27T02:43:16.313Z,2.00
2022-11-27T02:45:49.539Z,1.50
2022-11-27T02:48:22.627Z,0.80
2022-11-27T02:50:53.324Z,1.50
2022-11-27T02:53:39.888Z,2.90
2022-11-27T02:56:14.411Z,1.80
2022-11-27T02:58:43.541Z,1.90
2022-11-27T03:01:13.533Z,0.90
2022-11-27T03:03:46.906Z,1.50
2022-11-27T03:06:21.817Z,0.50
2022-11-27T03:08:59.770Z,0.90
2022-11-27T03:11:31.734Z,1.90
2022-11-27T03:14:04.881Z,2.60
2022-11-27T03:16:46.112Z,4.60
2022-11-27T03:19:17.914Z,1.50
2022-11-27T03:21:56.979Z,0.70
2022-11-27T03:24:28.983Z,0.60
2022-11-27T03:27:00.352Z,0.50
2022-11-27T03:29:44.380Z,1.70
2022-11-27T03:32:13.247Z,0.70
2022-11-27T03:34:42.677Z,0.40
2022-11-27T03:37:11.256Z,0.30
2022-11-27T03:39:40.328Z,0.50
2022-11-27T03:42:26.028Z,0.70
2022-11-27T03:45:16.596Z,4.40
2022-11-27T03:48:02.597Z,0.50
2022-11-27T03:50:51.833Z,4.30
2022-11-27T03:54:00.989Z,1.10
2022-11-27T03:56:35.519Z,0.50
2022-11-27T03:59:17.147Z,0.20
2022-11-27T04:01:46.003Z,1.40
2022-11-27T04:04:14.422Z,0.50
2022-11-27T04:06:42.826Z,0.40
2022-11-27T04:09:11.123Z,0.30
2022-11-27T04:11:39.589Z,0.80
2022-11-27T04:14:07.944Z,2.70
2022-11-27T04:16:36.639Z,1.00
2022-11-27T04:19:05.965Z,0.30
2022-11-27T04:21:34.709Z,0.20
2022-11-27T04:24:03.150Z,0.50
2022-11-27T04:26:31.778Z,2.00
2022-11-27T04:29:00.091Z,0.60
2022-11-27T04:31:28.278Z,0.70
2022-11-27T04:33:56.613Z,1.20
2022-11-27T04:36:25.220Z,0.30
2022-11-27T04:38:53.952Z,0.20
2022-11-27T04:41:22.683Z,0.40
2022-11-27T04:43:51.017Z,0.40
2022-11-27T04:46:19.787Z,0.10
2022-11-27T04:48:48.832Z,0.20
2022-11-27T04:51:17.433Z,0.10
2022-11-27T04:53:46.052Z,0.20
2022-11-27T04:56:14.376Z,0.20
2022-11-27T04:58:42.879Z,0.30
2022-11-27T05:01:11.756Z,1.70
2022-11-27T05:03:40.419Z,0.60
2022-11-27T05:06:09.237Z,1.80
2022-11-27T05:08:38.058Z,0.20
2022-11-27T05:11:09.502Z,0.90
2022-11-27T05:13:38.349Z,0.00
2022-11-27T05:16:07.467Z,0.50
2022-11-27T05:18:36.509Z,0.10
2022-11-27T05:21:07.667Z,1.30
2022-11-27T05:23:36.733Z,0.10
2022-11-27T05:26:05.171Z,0.50
2022-11-27T05:28:33.544Z,0.20
2022-11-27T05:31:01.910Z,1.30
2022-11-27T05:33:30.141Z,0.40
2022-11-27T05:35:58.437Z,0.40
2022-11-27T05:38:26.659Z,0.10
2022-11-27T05:40:54.978Z,1.00
2022-11-27T05:43:23.341Z,0.30
2022-11-27T05:45:52.073Z,2.70
2022-11-27T05:48:20.403Z,0.20
2022-11-27T05:50:48.722Z,0.20
2022-11-27T05:53:17.007Z,0.20
2022-11-27T05:55:45.760Z,0.30
2022-11-27T05:58:14.379Z,0.10
2022-11-27T06:00:42.690Z,1.10
2022-11-27T06:03:11.090Z,0.20
2022-11-27T06:05:43.030Z,0.30
2022-11-27T06:08:11.294Z,0.70
2022-11-27T06:10:40.614Z,0.20
2022-11-27T06:13:09.183Z,0.30
2022-11-27T06:15:38.966Z,0.20
2022-11-27T06:18:08.732Z,0.00
2022-11-27T06:20:42.254Z,0.20
2022-11-27T06:23:15.183Z,0.40
2022-11-27T06:25:43.573Z,0.20
2022-11-27T06:28:11.838Z,0.40
2022-11-27T06:30:40.425Z,0.50
2022-11-27T06:33:08.871Z,0.30
2022-11-27T06:35:37.208Z,0.10
2022-11-27T06:38:05.430Z,0.00
2022-11-27T06:40:34.139Z,1.10
2022-11-27T06:43:02.419Z,0.10
2022-11-27T06:45:30.945Z,3.30
2022-11-27T06:47:59.972Z,0.00
2022-11-27T06:50:28.469Z,0.20
2022-11-27T06:52:56.717Z,0.20
2022-11-27T06:55:25.156Z,1.50
2022-11-27T06:57:53.438Z,0.00
2022-11-27T07:00:22.410Z,0.10
2022-11-27T07:02:56.102Z,0.30
2022-11-27T07:05:26.014Z,0.60
2022-11-27T07:07:54.436Z,0.00
2022-11-27T07:10:22.807Z,0.40
2022-11-27T07:12:51.336Z,0.00
2022-11-27T07:15:20.209Z,0.80
2022-11-27T07:17:48.903Z,0.40
2022-11-27T07:20:17.891Z,0.00
2022-11-27T07:22:46.806Z,0.00
2022-11-27T07:25:15.483Z,0.10
2022-11-27T07:27:44.366Z,0.10
2022-11-27T07:30:13.277Z,2.70
2022-11-27T07:32:42.075Z,0.20
2022-11-27T07:35:11.260Z,0.10
2022-11-27T07:37:39.823Z,0.80
2022-11-27T07:40:08.691Z,0.00
2022-11-27T07:42:38.669Z,0.10
2022-11-27T07:45:09.743Z,1.40
2022-11-27T07:47:39.161Z,0.00
2022-11-27T07:50:09.439Z,0.20
2022-11-27T07:52:41.820Z,0.20
2022-11-27T07:55:11.696Z,0.20
2022-11-27T07:57:40.496Z,0.20
2022-11-27T08:00:13.171Z,2.70
2022-11-27T08:02:41.993Z,0.60
2022-11-27T08:05:13.224Z,0.20
2022-11-27T08:07:42.655Z,0.50
2022-11-27T08:10:11.366Z,2.00
2022-11-27T08:12:40.075Z,2.60
2022-11-27T08:15:09.347Z,0.30
2022-11-27T08:17:37.950Z,0.20
2022-11-27T08:20:07.045Z,0.00
2022-11-27T08:22:35.389Z,0.10
2022-11-27T08:25:04.114Z,0.20
2022-11-27T08:27:34.293Z,0.40
2022-11-27T08:30:03.232Z,0.10
2022-11-27T08:32:31.927Z,1.00
2022-11-27T08:35:00.519Z,0.30
2022-11-27T08:37:29.255Z,1.00
2022-11-27T08:39:57.934Z,6.20
2022-11-27T08:42:26.771Z,0.20
2022-11-27T08:44:55.662Z,0.20
2022-11-27T08:47:24.241Z,0.20
2022-11-27T08:49:53.007Z,0.00
2022-11-27T08:52:22.243Z,1.30
2022-11-27T08:54:57.176Z,0.30
2022-11-27T08:57:26.849Z,0.20
2022-11-27T08:59:55.483Z,0.30
2022-11-27T09:02:24.424Z,0.20
2022-11-27T09:04:53.269Z,0.20
2022-11-27T09:07:21.550Z,0.10
2022-11-27T09:09:50.608Z,0.10
2022-11-27T09:12:18.823Z,0.20
2022-11-27T09:14:47.242Z,2.20
2022-11-27T09:17:15.920Z,0.70
2022-11-27T09:19:44.217Z,0.80
2022-11-27T09:22:12.940Z,1.90
2022-11-27T09:24:41.783Z,0.10
2022-11-27T09:27:10.723Z,5.90
2022-11-27T09:29:39.860Z,0.20
2022-11-27T09:32:08.546Z,0.10
2022-11-27T09:34:37.635Z,0.20
2022-11-27T09:37:06.436Z,0.80
2022-11-27T09:39:35.125Z,0.30
2022-11-27T09:42:06.952Z,0.20
2022-11-27T09:44:49.291Z,5.40
2022-11-27T09:47:38.363Z,3.30
2022-11-27T09:50:09.865Z,7.20
2022-11-27T09:52:53.629Z,8.80
2022-11-27T09:55:39.424Z,20.50
2022-11-27T09:58:13.505Z,16.40
2022-11-27T10:00:42.019Z,8.20
2022-11-27T10:03:31.075Z,11.50
2022-11-27T10:06:58.909Z,15.50
2022-11-27T10:09:33.487Z,5.70
2022-11-27T10:12:05.037Z,9.10
2022-11-27T10:14:49.055Z,10.20
2022-11-27T10:17:28.302Z,6.80
2022-11-27T10:20:05.388Z,16.80
2022-11-27T10:23:11.194Z,6.50
2022-11-27T10:25:43.422Z,13.10
2022-11-27T10:28:34.881Z,9.50
2022-11-27T10:31:06.450Z,4.30
2022-11-27T10:33:48.975Z,15.70
2022-11-27T10:36:47.548Z,13.20
2022-11-27T10:39:32.496Z,10.70
2022-11-27T10:42:50.713Z,9.90
2022-11-27T10:45:26.547Z,10.80
2022-11-27T10:47:55.144Z,13.50
2022-11-27T10:50:24.089Z,14.40
2022-11-27T10:52:58.548Z,14.30
2022-11-27T10:56:04.766Z,16.10
2022-11-27T11:01:20.498Z,21.30
2022-11-27T11:03:49.520Z,15.50
2022-11-27T11:06:24.567Z,11.90
2022-11-27T11:09:14.486Z,18.40
2022-11-27T12:15:18.575Z,21.90
2022-11-27T12:17:56.085Z,22.10
2022-11-27T12:20:58.544Z,31.90
2022-11-27T12:23:39.233Z,15.10
2022-11-27T12:26:26.319Z,8.90
2022-11-27T12:29:07.697Z,1.30
2022-11-27T12:31:58.093Z,7.90
2022-11-27T12:34:57.101Z,9.30
2022-11-27T12:37:32.239Z,9.10
2022-11-27T12:40:36.497Z,7.30
2022-11-27T12:43:16.821Z,4.50
2022-11-27T12:46:06.916Z,7.10
2022-11-27T12:48:42.182Z,15.10
2022-11-27T12:51:41.219Z,9.00
2022-11-27T12:54:31.044Z,9.00
2022-11-27T12:57:03.668Z,9.30
2022-11-27T12:59:45.608Z,7.80
2022-11-27T13:02:28.872Z,8.80
2022-11-27T13:05:26.275Z,7.60
2022-11-27T13:08:03.544Z,4.70
2022-11-27T13:10:35.055Z,18.10
2022-11-27T13:13:30.025Z,12.00
2022-11-27T13:16:23.268Z,10.40
2022-11-27T13:19:35.046Z,9.70
2022-11-27T13:22:10.765Z,7.70
2022-11-27T13:24:39.996Z,4.00
2022-11-27T13:27:09.091Z,4.80
2022-11-27T13:29:43.738Z,6.20
2022-11-27T13:32:29.634Z,3.20
2022-11-27T13:35:01.822Z,2.60
2022-11-27T13:37:32.412Z,6.90
2022-11-27T13:40:05.836Z,3.00
2022-11-27T13:42:44.378Z,5.30
2022-11-27T13:45:33.096Z,2.70
2022-11-27T13:48:19.472Z,7.90
2022-11-27T13:50:48.692Z,6.30
2022-11-27T13:53:17.214Z,8.40
2022-11-27T13:55:57.711Z,6.40
2022-11-27T13:58:35.402Z,3.40
2022-11-27T14:01:22.471Z,4.60
2022-11-27T14:03:51.112Z,4.30
2022-11-27T14:06:22.264Z,4.70
2022-11-27T14:08:58.551Z,10.20
2022-11-27T14:14:03.718Z,8.30
2022-11-27T14:16:35.048Z,8.00
2022-11-27T14:19:08.246Z,1.50
2022-11-27T14:21:45.163Z,2.50
2022-11-27T14:24:48.005Z,7.30
2022-11-27T14:27:25.534Z,4.20
2022-11-27T14:29:54.283Z,2.10
2022-11-27T14:32:23.089Z,0.80
2022-11-27T14:34:51.781Z,6.10
2022-11-27T14:37:29.584Z,6.30
2022-11-27T14:39:58.094Z,4.80
2022-11-27T14:42:34.117Z,0.90
2022-11-27T14:45:14.812Z,5.20
2022-11-27T14:47:52.824Z,3.10
2022-11-27T14:50:23.435Z,1.20
2022-11-27T14:52:57.508Z,2.50
2022-11-27T14:55:31.571Z,2.40
2022-11-27T14:58:03.012Z,7.90
2022-11-27T15:00:33.349Z,3.10
2022-11-27T15:03:12.380Z,10.00
2022-11-27T15:05:41.138Z,4.40
2022-11-27T15:08:11.815Z,1.90
2022-11-27T15:10:42.529Z,2.80
2022-11-27T15:13:24.156Z,2.50
2022-11-27T15:16:04.465Z,6.10
2022-11-27T15:18:38.213Z,0.50
2022-11-27T15:21:13.778Z,2.20
2022-11-27T15:23:48.864Z,6.40
2022-11-27T15:26:41.437Z,0.40
2022-11-27T15:29:31.937Z,0.70
2022-11-27T15:32:00.530Z,2.70
2022-11-27T15:34:35.585Z,0.70
2022-11-27T15:37:07.777Z,0.40
2022-11-27T15:39:49.667Z,5.90
2022-11-27T15:42:19.723Z,2.80
2022-11-27T15:44:49.737Z,1.00
2022-11-27T15:47:25.756Z,3.00
2022-11-27T15:49:54.628Z,3.70
2022-11-27T15:52:23.416Z,2.00
2022-11-27T15:54:52.296Z,5.00
2022-11-27T15:57:21.185Z,5.20
2022-11-27T15:59:49.856Z,0.70
2022-11-27T16:02:18.650Z,1.50
2022-11-27T16:04:47.452Z,13.30
2022-11-27T16:07:16.394Z,2.70
2022-11-27T16:09:45.259Z,1.80
2022-11-27T16:12:13.931Z,2.10
2022-11-27T16:14:43.037Z,0.40
2022-11-27T16:17:12.867Z,1.20
2022-11-27T16:19:41.319Z,7.20
2022-11-27T16:22:10.600Z,6.60
2022-11-27T16:24:39.464Z,0.50
2022-11-27T16:27:08.428Z,0.70
2022-11-27T16:29:37.054Z,1.20
2022-11-27T16:32:05.858Z,0.40
2022-11-27T16:34:34.552Z,0.20
2022-11-27T16:37:03.451Z,2.00
2022-11-27T16:39:32.165Z,0.30
2022-11-27T16:42:00.884Z,0.80
2022-11-27T16:44:29.234Z,0.40
2022-11-27T16:46:57.566Z,2.20
2022-11-27T16:49:25.993Z,2.00
2022-11-27T16:51:54.584Z,11.70
2022-11-27T16:54:23.457Z,5.20
2022-11-27T16:56:52.693Z,0.30
2022-11-27T16:59:21.375Z,0.50
2022-11-27T17:01:50.147Z,0.50
2022-11-27T17:04:20.540Z,0.20
2022-11-27T17:06:50.677Z,0.20
2022-11-27T17:09:19.368Z,2.00
2022-11-27T17:11:52.037Z,0.80
2022-11-27T17:17:03.285Z,0.30
2022-11-27T17:19:32.680Z,0.50
2022-11-27T17:22:01.183Z,2.60
2022-11-27T17:24:30.127Z,0.60
2022-11-27T17:26:58.425Z,1.90
2022-11-27T17:29:29.384Z,0.30
2022-11-27T17:32:01.527Z,0.70
2022-11-27T17:34:30.121Z,3.30
2022-11-27T17:36:59.590Z,1.60
2022-11-27T17:39:28.122Z,0.40
2022-11-27T17:41:56.877Z,3.10
2022-11-27T17:44:25.465Z,3.00
2022-11-27T17:46:53.909Z,8.00
2022-11-27T17:49:23.089Z,0.70
2022-11-27T17:51:51.928Z,2.70
2022-11-27T17:54:20.534Z,1.10
2022-11-27T17:56:52.320Z,3.10
2022-11-27T17:59:21.462Z,2.00
2022-11-27T18:01:52.267Z,2.00
2022-11-27T18:04:21.815Z,2.20
2022-11-27T18:06:50.850Z,3.20
2022-11-27T18:09:19.776Z,0.30
2022-11-27T18:11:48.537Z,2.90
2022-11-27T18:14:17.208Z,1.00
2022-11-27T18:16:46.320Z,0.60
2022-11-27T18:19:15.367Z,1.00
2022-11-27T18:21:44.159Z,3.80
2022-11-27T18:24:27.899Z,8.20
2022-11-27T18:27:12.276Z,0.80
2022-11-27T18:29:45.456Z,1.60
2022-11-27T18:32:16.097Z,2.20
2022-11-27T18:34:45.555Z,0.80
2022-11-27T18:37:14.704Z,1.40
2022-11-27T18:39:45.468Z,0.90
2022-11-27T18:42:16.358Z,3.30
2022-11-27T18:44:45.549Z,1.60
2022-11-27T18:47:15.640Z,0.80
2022-11-27T18:49:44.646Z,0.50
2022-11-27T18:52:13.309Z,5.60
2022-11-27T18:54:41.700Z,4.00
2022-11-27T18:57:11.994Z,1.10
2022-11-27T18:59:40.913Z,1.40
2022-11-27T19:02:11.338Z,0.60
2022-11-27T19:04:40.305Z,3.10
2022-11-27T19:07:08.769Z,5.50
2022-11-27T19:09:37.359Z,4.50
2022-11-27T19:12:06.196Z,1.20
2022-11-27T19:14:35.011Z,6.40
2022-11-27T19:17:04.109Z,0.50
2022-11-27T19:22:23.025Z,0.40
2022-11-27T19:24:51.633Z,0.70
2022-11-27T19:27:20.510Z,1.40
2022-11-27T19:29:49.922Z,3.50
2022-11-27T19:32:18.615Z,0.70
2022-11-27T19:34:46.801Z,3.70
2022-11-27T19:37:15.069Z,4.00
2022-11-27T19:39:43.422Z,1.00
2022-11-27T19:42:11.822Z,3.50
2022-11-27T19:44:41.019Z,5.50
2022-11-27T19:47:10.663Z,1.20
2022-11-27T19:49:39.960Z,2.70
2022-11-27T19:52:08.607Z,0.60
2022-11-27T19:54:37.110Z,0.70
2022-11-27T19:57:06.128Z,3.60
2022-11-27T19:59:34.761Z,1.80
2022-11-27T20:02:03.521Z,3.00
2022-11-27T20:04:32.361Z,2.30
2022-11-27T20:07:00.972Z,6.90
2022-11-27T20:09:29.974Z,1.80
2022-11-27T20:11:58.652Z,1.10
2022-11-27T20:14:27.473Z,0.80
2022-11-27T20:16:56.874Z,2.70
2022-11-27T20:19:25.596Z,1.70
2022-11-27T20:21:54.161Z,2.10
2022-11-27T20:24:22.897Z,1.50
2022-11-27T20:26:51.605Z,0.80
2022-11-27T20:29:21.615Z,0.50
2022-11-27T20:31:50.469Z,0.90
2022-11-27T20:34:22.133Z,1.90
2022-11-27T20:36:51.199Z,1.30
2022-11-27T20:39:21.871Z,0.50
2022-11-27T20:41:52.493Z,1.30
2022-11-27T20:44:23.192Z,1.10
2022-11-27T20:46:52.277Z,3.60
2022-11-27T20:49:21.813Z,2.00
2022-11-27T20:51:51.366Z,4.50
2022-11-27T20:54:20.106Z,0.80
2022-11-27T20:56:52.123Z,11.20
2022-11-27T20:59:20.988Z,1.50
2022-11-27T21:01:50.169Z,2.50
2022-11-27T21:04:22.411Z,3.30
2022-11-27T21:06:51.364Z,1.10
2022-11-27T21:09:21.146Z,0.80
2022-11-27T21:11:50.134Z,0.70
2022-11-27T21:14:18.992Z,4.10
2022-11-27T21:16:51.432Z,7.80
2022-11-27T21:19:27.625Z,3.40
2022-11-27T21:21:56.326Z,0.70
2022-11-27T21:24:28.306Z,0.50
2022-11-27T21:26:57.288Z,0.40
2022-11-27T21:29:28.625Z,5.00
2022-11-27T21:31:58.012Z,5.60
2022-11-27T21:34:26.813Z,3.10
2022-11-27T21:36:55.832Z,3.00
2022-11-27T21:39:26.003Z,1.50
2022-11-27T21:41:57.085Z,2.10
2022-11-27T21:44:26.117Z,3.00
2022-11-27T21:46:54.431Z,0.30
2022-11-27T21:49:23.243Z,1.00
2022-11-27T21:51:55.518Z,0.60
2022-11-27T21:54:24.284Z,1.70
2022-11-27T21:56:53.788Z,1.90
2022-11-27T21:59:22.478Z,2.10
2022-11-27T22:01:51.098Z,3.90
2022-11-27T22:04:19.947Z,0.70
2022-11-27T22:06:51.654Z,0.40
2022-11-27T22:09:20.923Z,0.50
2022-11-27T22:11:49.271Z,0.50
2022-11-27T22:14:17.909Z,2.80
2022-11-27T22:16:47.356Z,2.20
2022-11-27T22:19:16.718Z,0.70
2022-11-27T22:21:45.852Z,0.90
2022-11-27T22:24:19.238Z,4.60
2022-11-27T22:26:48.439Z,2.40
2022-11-27T22:29:16.845Z,3.00
2022-11-27T22:31:45.153Z,0.70
2022-11-27T22:34:13.528Z,2.20
2022-11-27T22:36:41.809Z,0.50
2022-11-27T22:39:10.569Z,1.00
2022-11-27T22:41:41.283Z,0.70
2022-11-27T22:44:21.828Z,0.30
2022-11-27T22:46:50.685Z,6.30
2022-11-27T22:49:19.826Z,3.10
2022-11-27T22:51:48.878Z,1.60
2022-11-27T22:54:20.613Z,0.90
2022-11-27T22:56:49.480Z,0.70
2022-11-27T22:59:34.831Z,0.20
2022-11-27T23:02:04.393Z,2.50
2022-11-27T23:04:32.947Z,0.50
2022-11-27T23:07:01.640Z,1.40
2022-11-27T23:09:30.593Z,0.40
2022-11-27T23:11:59.803Z,5.40
2022-11-27T23:14:28.982Z,0.70
2022-11-27T23:16:57.608Z,0.70
2022-11-27T23:19:26.300Z,0.40
2022-11-27T23:21:55.216Z,0.60
2022-11-27T23:24:24.552Z,0.20
2022-11-27T23:26:53.014Z,1.20
2022-11-27T23:29:22.006Z,0.50
2022-11-27T23:31:50.695Z,0.50
2022-11-27T23:34:19.444Z,0.70
2022-11-27T23:36:48.170Z,0.20
2022-11-27T23:39:17.031Z,0.40
2022-11-27T23:41:46.028Z,1.00
2022-11-27T23:44:14.793Z,0.80
2022-11-27T23:46:43.470Z,0.50
2022-11-27T23:49:12.120Z,0.30
2022-11-27T23:51:40.844Z,3.00
2022-11-27T23:54:11.945Z,1.00
2022-11-27T23:56:41.815Z,0.90
2022-11-27T23:59:10.833Z,0.70
